KABI/ABI METAR and TAF weather

Enter ICAO airport designator
Station Type Date Time Source
KABI METAR 2020/08/15 15:52 UTC NOAA

KABI 151552Z 23011KT 10SM CLR 32/15 A2998 RMK AO2 SLP120 T03220150


Station Type Date Time Source
KABI Decoded METAR 2020/08/15 15:52 UTC NOAA

ABILENE REGIONAL AIRPORT, TX, United States (KABI) 32-25N 099-41W 548M
Aug 15, 2020 - 11:52 AM EDT / 2020.08.15 1552 UTC
Wind: from the SW (230 degrees) at 13 MPH (11 KT):0
Visibility: 10 mile(s):0
Sky conditions: clear
Temperature: 90.0 F (32.2 C)
Dew Point: 59.0 F (15.0 C)
Relative Humidity: 35%
Pressure (altimeter): 29.98 in. Hg (1015 hPa)
ob: KABI 151552Z 23011KT 10SM CLR 32/15 A2998 RMK AO2 SLP120 T03220150
cycle: 16

Station Type Date Time Source
KABI TAF 2020/08/15 12:30 UTC NOAA

TAF KABI 151129Z 1512/1612 30005KT P6SM SCT150 BKN250
FM151600 33009KT P6SM SCT250
FM152000 08011KT P6SM FEW100 SCT250
FM160200 09005KT P6SM SCT250

Example: see airport list